First Ferry Vi — VRS4293 — position and weather

sailwx.info

Track history (hours):
 
Tides and Currents Weather Stations Pressure Air Temp Water Temp Dewpoint Dewpoint Depression Visibility Wind Speed Wind Dir Waves Ship Positions

First Ferry Vi

Last reported at 2015-Apr-01 03:34 UTC. Time now 2015-Apr-01 04:41 UTC.
Position N 22°17' E 114°10'.

Length 36 m; draft 1.8 m.

Type: Ship. MMSI: 477995028.

Date/timePositionNaut miles runAvg speedWind from/ knotsBaromVisibWave heightAir tempDewpointWater temp
2015-Apr-01 03:34N 22°17' E 114°10'0 0.2
2015-Apr-01 01:34N 22°17' E 114°10'2 1.8
2015-Apr-01 00:33N 22°19' E 114°09'6 4.7
2015-Mar-31 23:19N 22°15' E 114°04'1 1.7
2015-Mar-31 22:32N 22°17' E 114°04'5 0.7
2015-Mar-31 15:33N 22°17' E 114°10'4 2.9
2015-Mar-31 14:15N 22°17' E 114°06'4 5.4
2015-Mar-31 13:33N 22°17' E 114°10'0 0.0
2015-Mar-31 12:34N 22°17' E 114°10'5 4.9
2015-Mar-31 11:33N 22°16' E 114°05'2 1.6
2015-Mar-31 10:23N 22°16' E 114°03'910.6
2015-Mar-31 09:33N 22°18' E 114°12'1 0.8
2015-Mar-31 08:33N 22°19' E 114°12'0 0.0
2015-Mar-31 07:33N 22°19' E 114°12'0 0.0
2015-Mar-31 06:33N 22°19' E 114°12'1 1.0
2015-Mar-31 05:33N 22°18' E 114°12'2 1.0
2015-Mar-31 03:33N 22°17' E 114°10'0 0.2
2015-Mar-31 01:33N 22°17' E 114°10'2 2.1
2015-Mar-31 00:33N 22°19' E 114°09'7 5.5
2015-Mar-30 23:21N 22°15' E 114°04'2 2.7
2015-Mar-30 22:33N 22°17' E 114°05'5 0.7
2015-Mar-30 15:33N 22°17' E 114°10'7 6.0
2015-Mar-30 14:23N 22°16' E 114°02'910.5
2015-Mar-30 13:33N 22°18' E 114°11'2 1.7
2015-Mar-30 12:34N 22°17' E 114°10'4 4.2
2015-Mar-30 11:32N 22°16' E 114°05'3 2.6
2015-Mar-30 10:24N 22°16' E 114°02'7 8.5
2015-Mar-30 09:33N 22°19' E 114°09'1 1.0
2015-Mar-30 08:29N 22°20' E 114°09'0 0.0
2015-Mar-30 06:11N 22°20' E 114°09'1 1.4
2015-Mar-30 05:32N 22°19' E 114°09'2 0.8
2015-Mar-30 03:33N 22°17' E 114°10'1 0.3
2015-Mar-30 01:33N 22°17' E 114°10'2 1.8
2015-Mar-30 00:33N 22°19' E 114°09'6 4.5
2015-Mar-29 23:19N 22°15' E 114°04'5 0.7
2015-Mar-29 15:33N 22°17' E 114°10'0 0.0
2015-Mar-29 13:33N 22°17' E 114°10'6 4.5
2015-Mar-29 12:20N 22°15' E 114°04'6 7.5
2015-Mar-29 11:33N 22°17' E 114°10'6 4.5
2015-Mar-29 10:20N 22°16' E 114°04'5 6.8
2015-Mar-29 09:33N 22°17' E 114°09'7 4.8
2015-Mar-29 08:04N 22°16' E 114°02'714.2
2015-Mar-29 07:33N 22°17' E 114°10'7 4.8
2015-Mar-29 06:03N 22°16' E 114°02'714.2
2015-Mar-29 05:33N 22°17' E 114°10'7 6.4
2015-Mar-29 04:25N 22°16' E 114°02'7 8.7
2015-Mar-29 03:33N 22°20' E 114°09'0 0.0
2015-Mar-29 02:33N 22°20' E 114°09'2 2.3
2015-Mar-29 01:34N 22°17' E 114°10'5 4.2
2015-Mar-29 00:19N 22°16' E 114°04'5 6.8
2015-Mar-28 23:33N 22°17' E 114°10'0 0.0
2015-Mar-28 16:33N 22°17' E 114°10'8 5.5
2015-Mar-28 15:09N 22°16' E 114°01'812.9
2015-Mar-28 14:33N 22°17' E 114°10'3 2.5
2015-Mar-28 13:33N 22°20' E 114°09'3 2.5
2015-Mar-28 12:34N 22°17' E 114°10'5 4.2
2015-Mar-28 11:20N 22°16' E 114°04'4 5.7
2015-Mar-28 10:34N 22°18' E 114°09'6 6.2
2015-Mar-28 09:33N 22°16' E 114°02'8 7.5
2015-Mar-28 08:33N 22°17' E 114°10'7 4.9
2015-Mar-28 07:10N 22°15' E 114°03'6 9.4
2015-Mar-28 06:34N 22°18' E 114°09'6 6.2
2015-Mar-28 05:33N 22°16' E 114°02'8 7.6
2015-Mar-28 04:33N 22°17' E 114°10'1 0.3
2015-Mar-28 02:33N 22°17' E 114°10'3 2.5
2015-Mar-28 01:33N 22°20' E 114°09'2 1.2
2015-Mar-27 23:33N 22°17' E 114°10'0 0.0
2015-Mar-27 16:33N 22°17' E 114°10'6 4.4
2015-Mar-27 15:07N 22°16' E 114°03'611.4
2015-Mar-27 14:33N 22°17' E 114°10'3 2.9
2015-Mar-27 13:33N 22°17' E 114°06'2 0.8
2015-Mar-27 11:20N 22°17' E 114°05'4 5.8
2015-Mar-27 10:34N 22°18' E 114°09'2 1.6
2015-Mar-27 09:33N 22°20' E 114°09'0 0.0
2015-Mar-27 08:28N 22°20' E 114°09'0 0.0
2015-Mar-27 07:28N 22°20' E 114°09'1 1.0
2015-Mar-27 06:33N 22°19' E 114°09'2 0.7
2015-Mar-27 04:20N 22°17' E 114°10'0 0.0
2015-Mar-27 02:24N 22°17' E 114°10'1 1.0
2015-Mar-27 01:34N 22°17' E 114°10'1 0.4
2015-Mar-26 23:33N 22°17' E 114°10'8 1.2
2015-Mar-26 17:04N 22°15' E 114°01'815.8
2015-Mar-26 16:34N 22°17' E 114°10'8 5.5
2015-Mar-26 15:10N 22°16' E 114°02'812.4
2015-Mar-26 14:33N 22°17' E 114°10'3 3.0
2015-Mar-26 13:33N 22°17' E 114°06'3 1.3
2015-Mar-26 11:23N 22°16' E 114°03'8 9.7
2015-Mar-26 10:33N 22°19' E 114°12'0 0.0
2015-Mar-26 09:33N 22°19' E 114°12'0 0.0
2015-Mar-26 08:33N 22°19' E 114°12'0 0.0
2015-Mar-26 07:33N 22°19' E 114°12'1 1.2
2015-Mar-26 06:34N 22°18' E 114°11'2 0.8
2015-Mar-26 04:33N 22°17' E 114°10'0 0.0
2015-Mar-26 02:32N 22°17' E 114°10'2 2.2
2015-Mar-26 01:25N 22°20' E 114°09'2 1.3
2015-Mar-25 23:34N 22°17' E 114°10'0 0.0
2015-Mar-25 16:34N 22°17' E 114°10'7 5.3
2015-Mar-25 15:09N 22°16' E 114°02'712.7
2015-Mar-25 14:34N 22°17' E 114°10'3 3.1
2015-Mar-25 13:34N 22°17' E 114°06'4 2.1
2015-Mar-25 11:26N 22°16' E 114°02'1011.0
2015-Mar-25 10:33N 22°18' E 114°12'1 0.5
2015-Mar-25 09:33N 22°19' E 114°12'1 1.3
2015-Mar-25 08:33N 22°18' E 114°11'2 0.8
2015-Mar-25 06:33N 22°17' E 114°10'1 0.7
2015-Mar-25 05:33N 22°17' E 114°10'1 0.3
2015-Mar-25 03:33N 22°17' E 114°10'0 0.2
2015-Mar-25 01:33N 22°17' E 114°10'0 0.2
2015-Mar-24 23:33N 22°17' E 114°10'0 0.0
2015-Mar-24 16:33N 22°17' E 114°09'7 5.1
2015-Mar-24 15:09N 22°16' E 114°02'711.9
2015-Mar-24 14:33N 22°17' E 114°10'3 2.9
2015-Mar-24 13:33N 22°17' E 114°06'2 1.1
2015-Mar-24 11:19N 22°16' E 114°04'6 8.3
2015-Mar-24 10:33N 22°18' E 114°11'1 1.4
2015-Mar-24 09:33N 22°19' E 114°12'0 0.0
2015-Mar-24 08:33N 22°19' E 114°12'0 0.0
2015-Mar-24 07:33N 22°19' E 114°12'1 1.2
2015-Mar-24 06:33N 22°18' E 114°11'2 0.8
2015-Mar-24 04:32N 22°17' E 114°10'4 2.9
2015-Mar-24 03:03N 22°16' E 114°05'4 7.4
2015-Mar-24 02:28N 22°17' E 114°10'3 2.3
2015-Mar-24 01:23N 22°20' E 114°09'3 1.4
2015-Mar-23 23:34N 22°17' E 114°10'0 0.0
2015-Mar-23 16:33N 22°17' E 114°10'8 5.8
2015-Mar-23 15:10N 22°16' E 114°01'813.2
2015-Mar-23 14:33N 22°17' E 114°10'3 3.3
2015-Mar-23 13:34N 22°17' E 114°06'4 2.0
2015-Mar-23 11:26N 22°16' E 114°02'1010.9
2015-Mar-23 10:33N 22°19' E 114°12'0 0.4
2015-Mar-23 09:33N 22°19' E 114°12'0 0.0
2015-Mar-23 08:33N 22°19' E 114°12'0 0.0
2015-Mar-23 07:33N 22°19' E 114°12'2 1.5
2015-Mar-23 06:33N 22°18' E 114°11'6 4.3
2015-Mar-23 05:03N 22°16' E 114°04'5 9.9
2015-Mar-23 04:32N 22°17' E 114°10'0 0.0
2015-Mar-23 02:33N 22°17' E 114°10'3 2.6
2015-Mar-23 01:33N 22°19' E 114°12'3 1.3
2015-Mar-22 23:33N 22°17' E 114°10'0 0.0
2015-Mar-22 16:33N 22°17' E 114°10'1 0.8
2015-Mar-22 15:33N 22°17' E 114°10'1 0.9
2015-Mar-22 14:33N 22°17' E 114°10'5 4.2
2015-Mar-22 13:19N 22°16' E 114°04'4 5.4
2015-Mar-22 12:33N 22°18' E 114°08'2 0.9
2015-Mar-22 10:33N 22°17' E 114°06'0 0.2
2015-Mar-22 08:33N 22°17' E 114°06'1 0.3
2015-Mar-22 06:34N 22°17' E 114°07'3 1.3
2015-Mar-22 04:19N 22°16' E 114°04'  
Track history (hours):
 
Tides and Currents Weather Stations Pressure Air Temp Water Temp Dewpoint Dewpoint Depression Visibility Wind Speed Wind Dir Waves Ship Positions

First Ferry Vi

Last reported at 2015-Apr-01 03:34 UTC. Time now 2015-Apr-01 04:41 UTC.
Position N 22°17' E 114°10'.

Length 36 m; draft 1.8 m.

Type: Ship. MMSI: 477995028.

Date/timePositionNaut miles runAvg speedWind from/ knotsBaromVisibWave heightAir tempDewpointWater temp
2015-Apr-01 03:34N 22°17' E 114°10'0 0.2
2015-Apr-01 01:34N 22°17' E 114°10'2 1.8
2015-Apr-01 00:33N 22°19' E 114°09'6 4.7
2015-Mar-31 23:19N 22°15' E 114°04'1 1.7
2015-Mar-31 22:32N 22°17' E 114°04'5 0.7
2015-Mar-31 15:33N 22°17' E 114°10'4 2.9
2015-Mar-31 14:15N 22°17' E 114°06'4 5.4
2015-Mar-31 13:33N 22°17' E 114°10'0 0.0
2015-Mar-31 12:34N 22°17' E 114°10'5 4.9
2015-Mar-31 11:33N 22°16' E 114°05'2 1.6
2015-Mar-31 10:23N 22°16' E 114°03'910.6
2015-Mar-31 09:33N 22°18' E 114°12'1 0.8
2015-Mar-31 08:33N 22°19' E 114°12'0 0.0
2015-Mar-31 07:33N 22°19' E 114°12'0 0.0
2015-Mar-31 06:33N 22°19' E 114°12'1 1.0
2015-Mar-31 05:33N 22°18' E 114°12'2 1.0
2015-Mar-31 03:33N 22°17' E 114°10'0 0.2
2015-Mar-31 01:33N 22°17' E 114°10'2 2.1
2015-Mar-31 00:33N 22°19' E 114°09'7 5.5
2015-Mar-30 23:21N 22°15' E 114°04'2 2.7
2015-Mar-30 22:33N 22°17' E 114°05'5 0.7
2015-Mar-30 15:33N 22°17' E 114°10'7 6.0
2015-Mar-30 14:23N 22°16' E 114°02'910.5
2015-Mar-30 13:33N 22°18' E 114°11'2 1.7
2015-Mar-30 12:34N 22°17' E 114°10'4 4.2
2015-Mar-30 11:32N 22°16' E 114°05'3 2.6
2015-Mar-30 10:24N 22°16' E 114°02'7 8.5
2015-Mar-30 09:33N 22°19' E 114°09'1 1.0
2015-Mar-30 08:29N 22°20' E 114°09'0 0.0
2015-Mar-30 06:11N 22°20' E 114°09'1 1.4
2015-Mar-30 05:32N 22°19' E 114°09'2 0.8
2015-Mar-30 03:33N 22°17' E 114°10'1 0.3
2015-Mar-30 01:33N 22°17' E 114°10'2 1.8
2015-Mar-30 00:33N 22°19' E 114°09'6 4.5
2015-Mar-29 23:19N 22°15' E 114°04'5 0.7
2015-Mar-29 15:33N 22°17' E 114°10'0 0.0
2015-Mar-29 13:33N 22°17' E 114°10'6 4.5
2015-Mar-29 12:20N 22°15' E 114°04'6 7.5
2015-Mar-29 11:33N 22°17' E 114°10'6 4.5
2015-Mar-29 10:20N 22°16' E 114°04'5 6.8
2015-Mar-29 09:33N 22°17' E 114°09'7 4.8
2015-Mar-29 08:04N 22°16' E 114°02'714.2
2015-Mar-29 07:33N 22°17' E 114°10'7 4.8
2015-Mar-29 06:03N 22°16' E 114°02'714.2
2015-Mar-29 05:33N 22°17' E 114°10'7 6.4
2015-Mar-29 04:25N 22°16' E 114°02'7 8.7
2015-Mar-29 03:33N 22°20' E 114°09'0 0.0
2015-Mar-29 02:33N 22°20' E 114°09'2 2.3
2015-Mar-29 01:34N 22°17' E 114°10'5 4.2
2015-Mar-29 00:19N 22°16' E 114°04'5 6.8
2015-Mar-28 23:33N 22°17' E 114°10'0 0.0
2015-Mar-28 16:33N 22°17' E 114°10'8 5.5
2015-Mar-28 15:09N 22°16' E 114°01'812.9
2015-Mar-28 14:33N 22°17' E 114°10'3 2.5
2015-Mar-28 13:33N 22°20' E 114°09'3 2.5
2015-Mar-28 12:34N 22°17' E 114°10'5 4.2
2015-Mar-28 11:20N 22°16' E 114°04'4 5.7
2015-Mar-28 10:34N 22°18' E 114°09'6 6.2
2015-Mar-28 09:33N 22°16' E 114°02'8 7.5
2015-Mar-28 08:33N 22°17' E 114°10'7 4.9
2015-Mar-28 07:10N 22°15' E 114°03'6 9.4
2015-Mar-28 06:34N 22°18' E 114°09'6 6.2
2015-Mar-28 05:33N 22°16' E 114°02'8 7.6
2015-Mar-28 04:33N 22°17' E 114°10'1 0.3
2015-Mar-28 02:33N 22°17' E 114°10'3 2.5
2015-Mar-28 01:33N 22°20' E 114°09'2 1.2
2015-Mar-27 23:33N 22°17' E 114°10'0 0.0
2015-Mar-27 16:33N 22°17' E 114°10'6 4.4
2015-Mar-27 15:07N 22°16' E 114°03'611.4
2015-Mar-27 14:33N 22°17' E 114°10'3 2.9
2015-Mar-27 13:33N 22°17' E 114°06'2 0.8
2015-Mar-27 11:20N 22°17' E 114°05'4 5.8
2015-Mar-27 10:34N 22°18' E 114°09'2 1.6
2015-Mar-27 09:33N 22°20' E 114°09'0 0.0
2015-Mar-27 08:28N 22°20' E 114°09'0 0.0
2015-Mar-27 07:28N 22°20' E 114°09'1 1.0
2015-Mar-27 06:33N 22°19' E 114°09'2 0.7
2015-Mar-27 04:20N 22°17' E 114°10'0 0.0
2015-Mar-27 02:24N 22°17' E 114°10'1 1.0
2015-Mar-27 01:34N 22°17' E 114°10'1 0.4
2015-Mar-26 23:33N 22°17' E 114°10'8 1.2
2015-Mar-26 17:04N 22°15' E 114°01'815.8
2015-Mar-26 16:34N 22°17' E 114°10'8 5.5
2015-Mar-26 15:10N 22°16' E 114°02'812.4
2015-Mar-26 14:33N 22°17' E 114°10'3 3.0
2015-Mar-26 13:33N 22°17' E 114°06'3 1.3
2015-Mar-26 11:23N 22°16' E 114°03'8 9.7
2015-Mar-26 10:33N 22°19' E 114°12'0 0.0
2015-Mar-26 09:33N 22°19' E 114°12'0 0.0
2015-Mar-26 08:33N 22°19' E 114°12'0 0.0
2015-Mar-26 07:33N 22°19' E 114°12'1 1.2
2015-Mar-26 06:34N 22°18' E 114°11'2 0.8
2015-Mar-26 04:33N 22°17' E 114°10'0 0.0
2015-Mar-26 02:32N 22°17' E 114°10'2 2.2
2015-Mar-26 01:25N 22°20' E 114°09'2 1.3
2015-Mar-25 23:34N 22°17' E 114°10'0 0.0
2015-Mar-25 16:34N 22°17' E 114°10'7 5.3
2015-Mar-25 15:09N 22°16' E 114°02'712.7
2015-Mar-25 14:34N 22°17' E 114°10'3 3.1
2015-Mar-25 13:34N 22°17' E 114°06'4 2.1
2015-Mar-25 11:26N 22°16' E 114°02'1011.0
2015-Mar-25 10:33N 22°18' E 114°12'1 0.5
2015-Mar-25 09:33N 22°19' E 114°12'1 1.3
2015-Mar-25 08:33N 22°18' E 114°11'2 0.8
2015-Mar-25 06:33N 22°17' E 114°10'1 0.7
2015-Mar-25 05:33N 22°17' E 114°10'1 0.3
2015-Mar-25 03:33N 22°17' E 114°10'0 0.2
2015-Mar-25 01:33N 22°17' E 114°10'0 0.2
2015-Mar-24 23:33N 22°17' E 114°10'0 0.0
2015-Mar-24 16:33N 22°17' E 114°09'7 5.1
2015-Mar-24 15:09N 22°16' E 114°02'711.9
2015-Mar-24 14:33N 22°17' E 114°10'3 2.9
2015-Mar-24 13:33N 22°17' E 114°06'2 1.1
2015-Mar-24 11:19N 22°16' E 114°04'6 8.3
2015-Mar-24 10:33N 22°18' E 114°11'1 1.4
2015-Mar-24 09:33N 22°19' E 114°12'0 0.0
2015-Mar-24 08:33N 22°19' E 114°12'0 0.0
2015-Mar-24 07:33N 22°19' E 114°12'1 1.2
2015-Mar-24 06:33N 22°18' E 114°11'2 0.8
2015-Mar-24 04:32N 22°17' E 114°10'4 2.9
2015-Mar-24 03:03N 22°16' E 114°05'4 7.4
2015-Mar-24 02:28N 22°17' E 114°10'3 2.3
2015-Mar-24 01:23N 22°20' E 114°09'3 1.4
2015-Mar-23 23:34N 22°17' E 114°10'0 0.0
2015-Mar-23 16:33N 22°17' E 114°10'8 5.8
2015-Mar-23 15:10N 22°16' E 114°01'813.2
2015-Mar-23 14:33N 22°17' E 114°10'3 3.3
2015-Mar-23 13:34N 22°17' E 114°06'4 2.0
2015-Mar-23 11:26N 22°16' E 114°02'1010.9
2015-Mar-23 10:33N 22°19' E 114°12'0 0.4
2015-Mar-23 09:33N 22°19' E 114°12'0 0.0
2015-Mar-23 08:33N 22°19' E 114°12'0 0.0
2015-Mar-23 07:33N 22°19' E 114°12'2 1.5
2015-Mar-23 06:33N 22°18' E 114°11'6 4.3
2015-Mar-23 05:03N 22°16' E 114°04'5 9.9
2015-Mar-23 04:32N 22°17' E 114°10'0 0.0
2015-Mar-23 02:33N 22°17' E 114°10'3 2.6
2015-Mar-23 01:33N 22°19' E 114°12'3 1.3
2015-Mar-22 23:33N 22°17' E 114°10'0 0.0
2015-Mar-22 16:33N 22°17' E 114°10'1 0.8
2015-Mar-22 15:33N 22°17' E 114°10'1 0.9
2015-Mar-22 14:33N 22°17' E 114°10'5 4.2
2015-Mar-22 13:19N 22°16' E 114°04'4 5.4
2015-Mar-22 12:33N 22°18' E 114°08'2 0.9
2015-Mar-22 10:33N 22°17' E 114°06'0 0.2
2015-Mar-22 08:33N 22°17' E 114°06'1 0.3
2015-Mar-22 06:34N 22°17' E 114°07'3 1.3
2015-Mar-22 04:19N 22°16' E 114°04'  

Dump ship's entire track history